ARG1420 SABE-SAME
Flight info
| Callsign | ARG1420 |
|---|---|
| Flight time | 1h 40m |
| Altitude | 36000 |
| Route | PAL9 NEPIS DCT NIN UL405 PAPIR |
| Aircraft | B738/M-SDE2E3FGHIRWXY/LB1 |
Departure
| Time | 2026-04-23 00:19 |
|---|---|
| Airport | Aeroparque Jorge Newbery (SABE) |
Arrival
| Time | 2026-04-23 01:59 |
|---|---|
| Airport | Governor Francisco Gabrielli International Airport (SAME) |
| Time | Latitude | Longitude | Altitude | Speed | Heading |
|---|---|---|---|---|---|
| 2026-04-22 23:48 | -34.55671 | -58.41529 | 26 ft | 0 kts | 5° |
| 2026-04-23 00:08 | -34.55677 | -58.41530 | 28 ft | 2 kts | 1° |
| 2026-04-23 00:08 | -34.55694 | -58.41529 | 31 ft | 2 kts | 347° |
| 2026-04-23 00:08 | -34.55710 | -58.41522 | 29 ft | 2 kts | 329° |
| 2026-04-23 00:09 | -34.55722 | -58.41510 | 30 ft | 2 kts | 304° |
| 2026-04-23 00:09 | -34.55730 | -58.41492 | 30 ft | 2 kts | 292° |
| 2026-04-23 00:09 | -34.55733 | -58.41483 | 29 ft | 0 kts | 295° |
| 2026-04-23 00:13 | -34.55728 | -58.41497 | 31 ft | 4 kts | 295° |
| 2026-04-23 00:13 | -34.55723 | -58.41536 | 29 ft | 6 kts | 253° |
| 2026-04-23 00:13 | -34.55755 | -58.41572 | 27 ft | 7 kts | 215° |
| 2026-04-23 00:13 | -34.55805 | -58.41578 | 28 ft | 9 kts | 140° |
| 2026-04-23 00:14 | -34.55837 | -58.41507 | 29 ft | 10 kts | 117° |
| 2026-04-23 00:14 | -34.55872 | -58.41423 | 27 ft | 12 kts | 117° |
| 2026-04-23 00:14 | -34.55913 | -58.41326 | 29 ft | 14 kts | 117° |
| 2026-04-23 00:14 | -34.55967 | -58.41226 | 26 ft | 15 kts | 127° |
| 2026-04-23 00:15 | -34.56028 | -58.41127 | 29 ft | 14 kts | 127° |
| 2026-04-23 00:15 | -34.56087 | -58.41032 | 26 ft | 14 kts | 127° |
| 2026-04-23 00:15 | -34.56143 | -58.40943 | 26 ft | 13 kts | 123° |
| 2026-04-23 00:15 | -34.56160 | -58.40846 | 26 ft | 12 kts | 105° |
| 2026-04-23 00:16 | -34.56202 | -58.40764 | 29 ft | 11 kts | 124° |
| 2026-04-23 00:16 | -34.56246 | -58.40685 | 28 ft | 11 kts | 124° |
| 2026-04-23 00:16 | -34.56274 | -58.40635 | 27 ft | 11 kts | 124° |
| 2026-04-23 00:16 | -34.56330 | -58.40535 | 27 ft | 10 kts | 128° |
| 2026-04-23 00:17 | -34.56363 | -58.40495 | 27 ft | 10 kts | 137° |
| 2026-04-23 00:17 | -34.56418 | -58.40441 | 26 ft | 10 kts | 141° |
| 2026-04-23 00:17 | -34.56485 | -58.40369 | 26 ft | 10 kts | 144° |
| 2026-04-23 00:17 | -34.56547 | -58.40379 | 26 ft | 10 kts | 211° |
| 2026-04-23 00:18 | -34.56550 | -58.40451 | 26 ft | 10 kts | 303° |
| 2026-04-23 00:18 | -34.56511 | -58.40521 | 25 ft | 10 kts | 303° |
| 2026-04-23 00:18 | -34.56433 | -58.40661 | 27 ft | 50 kts | 304° |
| 2026-04-23 00:18 | -34.56226 | -58.41031 | 26 ft | 108 kts | 304° |
| 2026-04-23 00:19 | -34.55660 | -58.42055 | 98 ft | 176 kts | 303° |
| 2026-04-23 00:19 | -34.54966 | -58.43312 | 1133 ft | 177 kts | 302° |
| 2026-04-23 00:19 | -34.54017 | -58.44221 | 2246 ft | 185 kts | 342° |
| 2026-04-23 00:19 | -34.52239 | -58.43720 | 3009 ft | 213 kts | 33° |
| 2026-04-23 00:20 | -34.51072 | -58.42577 | 3761 ft | 216 kts | 41° |
| 2026-04-23 00:20 | -34.49936 | -58.41364 | 4477 ft | 219 kts | 43° |
| 2026-04-23 00:20 | -34.49151 | -58.40544 | 4932 ft | 223 kts | 39° |
| 2026-04-23 00:20 | -34.47854 | -58.39428 | 5400 ft | 237 kts | 34° |
| 2026-04-23 00:21 | -34.45987 | -58.37857 | 6057 ft | 254 kts | 40° |
| 2026-04-23 00:21 | -34.45148 | -58.36811 | 6277 ft | 272 kts | 52° |
| 2026-04-23 00:21 | -34.44199 | -58.34692 | 6640 ft | 293 kts | 75° |
| 2026-04-23 00:21 | -34.43986 | -58.32183 | 7138 ft | 306 kts | 99° |
| 2026-04-23 00:22 | -34.44654 | -58.29795 | 8222 ft | 297 kts | 123° |
| 2026-04-23 00:22 | -34.45999 | -58.27932 | 9118 ft | 296 kts | 147° |
| 2026-04-23 00:22 | -34.48524 | -58.26852 | 10086 ft | 295 kts | 184° |
| 2026-04-23 00:22 | -34.49892 | -58.27047 | 10514 ft | 295 kts | 200° |
| 2026-04-23 00:23 | -34.51734 | -58.28171 | 10746 ft | 311 kts | 224° |
| 2026-04-23 00:23 | -34.53151 | -58.30220 | 10938 ft | 328 kts | 243° |
| 2026-04-23 00:23 | -34.54014 | -58.32848 | 11163 ft | 345 kts | 259° |
| 2026-04-23 00:23 | -34.54301 | -58.35768 | 11720 ft | 352 kts | 268° |
| 2026-04-23 00:24 | -34.54360 | -58.38743 | 12486 ft | 354 kts | 270° |
| 2026-04-23 00:24 | -34.54363 | -58.41731 | 13287 ft | 355 kts | 270° |
| 2026-04-23 00:24 | -34.54370 | -58.44734 | 14034 ft | 358 kts | 270° |
| 2026-04-23 00:24 | -34.54397 | -58.47723 | 14689 ft | 360 kts | 270° |
| 2026-04-23 00:25 | -34.54445 | -58.50761 | 15399 ft | 361 kts | 269° |
| 2026-04-23 00:25 | -34.54509 | -58.53809 | 16123 ft | 362 kts | 269° |
| 2026-04-23 00:25 | -34.54583 | -58.56857 | 16817 ft | 363 kts | 269° |
| 2026-04-23 00:25 | -34.54663 | -58.59921 | 17494 ft | 364 kts | 270° |
| 2026-04-23 00:26 | -34.54747 | -58.62996 | 18162 ft | 365 kts | 270° |
| 2026-04-23 00:26 | -34.54833 | -58.66082 | 18747 ft | 367 kts | 270° |
| 2026-04-23 00:26 | -34.54919 | -58.69188 | 19280 ft | 369 kts | 270° |
| 2026-04-23 00:26 | -34.55005 | -58.72313 | 19798 ft | 372 kts | 270° |
| 2026-04-23 00:27 | -34.55091 | -58.75452 | 20315 ft | 374 kts | 270° |
| 2026-04-23 00:27 | -34.55177 | -58.78609 | 20826 ft | 376 kts | 270° |
| 2026-04-23 00:27 | -34.55262 | -58.81747 | 21305 ft | 378 kts | 270° |
| 2026-04-23 00:27 | -34.55347 | -58.84942 | 21782 ft | 380 kts | 270° |
| 2026-04-23 00:28 | -34.55395 | -58.88155 | 22260 ft | 382 kts | 271° |
| 2026-04-23 00:28 | -34.55413 | -58.91384 | 22724 ft | 384 kts | 272° |
| 2026-04-23 00:28 | -34.55442 | -58.94633 | 23175 ft | 386 kts | 271° |
| 2026-04-23 00:28 | -34.55493 | -58.97902 | 23610 ft | 388 kts | 271° |
| 2026-04-23 00:29 | -34.55562 | -59.01188 | 23988 ft | 391 kts | 271° |
| 2026-04-23 00:29 | -34.55644 | -59.04484 | 24363 ft | 392 kts | 271° |
| 2026-04-23 00:29 | -34.55734 | -59.07795 | 24733 ft | 393 kts | 271° |
| 2026-04-23 00:29 | -34.55827 | -59.11113 | 25109 ft | 394 kts | 271° |
| 2026-04-23 00:30 | -34.55919 | -59.14401 | 25460 ft | 396 kts | 271° |
| 2026-04-23 00:30 | -34.56012 | -59.17735 | 25812 ft | 397 kts | 271° |
| 2026-04-23 00:30 | -34.56105 | -59.21091 | 26143 ft | 398 kts | 271° |
| 2026-04-23 00:30 | -34.56197 | -59.24454 | 26465 ft | 400 kts | 271° |
| 2026-04-23 00:31 | -34.56288 | -59.27834 | 26783 ft | 401 kts | 271° |
| 2026-04-23 00:31 | -34.56379 | -59.31218 | 27092 ft | 402 kts | 271° |
| 2026-04-23 00:31 | -34.56469 | -59.34622 | 27405 ft | 404 kts | 271° |
| 2026-04-23 00:31 | -34.56558 | -59.38029 | 27695 ft | 405 kts | 271° |
| 2026-04-23 00:32 | -34.56645 | -59.41401 | 27970 ft | 406 kts | 271° |
| 2026-04-23 00:32 | -34.56733 | -59.44827 | 28322 ft | 406 kts | 271° |
| 2026-04-23 00:32 | -34.56819 | -59.48239 | 28785 ft | 403 kts | 271° |
| 2026-04-23 00:32 | -34.56905 | -59.51622 | 29258 ft | 400 kts | 271° |
| 2026-04-23 00:33 | -34.56989 | -59.54984 | 29725 ft | 398 kts | 271° |
| 2026-04-23 00:33 | -34.57070 | -59.58329 | 30178 ft | 396 kts | 271° |
| 2026-04-23 00:33 | -34.57135 | -59.61657 | 30569 ft | 393 kts | 272° |
| 2026-04-23 00:33 | -34.57111 | -59.64955 | 30993 ft | 389 kts | 274° |
| 2026-04-23 00:34 | -34.57069 | -59.67121 | 31277 ft | 387 kts | 274° |
| 2026-04-23 00:34 | -34.56964 | -59.71458 | 31861 ft | 382 kts | 274° |
| 2026-04-23 00:34 | -34.56887 | -59.74623 | 32270 ft | 379 kts | 274° |
| 2026-04-23 00:34 | -34.56814 | -59.77807 | 32666 ft | 377 kts | 274° |
| 2026-04-23 00:35 | -34.56746 | -59.80972 | 33058 ft | 374 kts | 274° |
| 2026-04-23 00:35 | -34.56681 | -59.84121 | 33419 ft | 372 kts | 274° |
| 2026-04-23 00:35 | -34.56619 | -59.87251 | 33806 ft | 370 kts | 274° |
| 2026-04-23 00:35 | -34.56557 | -59.90363 | 34180 ft | 367 kts | 274° |
| 2026-04-23 00:36 | -34.56496 | -59.93449 | 34477 ft | 366 kts | 274° |
| 2026-04-23 00:36 | -34.56435 | -59.96528 | 34755 ft | 364 kts | 274° |
| 2026-04-23 00:36 | -34.56373 | -59.99593 | 35029 ft | 363 kts | 274° |
| 2026-04-23 00:36 | -34.56311 | -60.02609 | 35290 ft | 362 kts | 274° |
| 2026-04-23 00:37 | -34.56248 | -60.05651 | 35585 ft | 360 kts | 275° |
| 2026-04-23 00:37 | -34.56185 | -60.08678 | 35857 ft | 359 kts | 275° |
| 2026-04-23 00:37 | -34.56121 | -60.11700 | 36084 ft | 358 kts | 275° |
| 2026-04-23 00:38 | -34.55989 | -60.17774 | 36171 ft | 361 kts | 275° |
| 2026-04-23 00:38 | -34.55856 | -60.23839 | 36174 ft | 358 kts | 275° |
| 2026-04-23 00:39 | -34.55722 | -60.29812 | 36180 ft | 355 kts | 275° |
| 2026-04-23 00:39 | -34.55585 | -60.35783 | 36180 ft | 353 kts | 275° |
| 2026-04-23 00:40 | -34.55445 | -60.41731 | 36185 ft | 353 kts | 275° |
| 2026-04-23 00:40 | -34.55302 | -60.47685 | 36191 ft | 353 kts | 275° |
| 2026-04-23 00:41 | -34.55156 | -60.53618 | 36188 ft | 355 kts | 275° |
| 2026-04-23 00:41 | -34.55006 | -60.59620 | 36184 ft | 357 kts | 275° |
| 2026-04-23 00:42 | -34.54853 | -60.65660 | 36192 ft | 359 kts | 275° |
| 2026-04-23 00:42 | -34.54697 | -60.71692 | 36193 ft | 361 kts | 275° |
| 2026-04-23 00:43 | -34.54536 | -60.77790 | 36192 ft | 362 kts | 275° |
| 2026-04-23 00:43 | -34.54372 | -60.83907 | 36191 ft | 363 kts | 275° |
| 2026-04-23 00:44 | -34.54204 | -60.90034 | 36194 ft | 363 kts | 275° |
| 2026-04-23 00:44 | -34.53735 | -60.96067 | 36193 ft | 361 kts | 282° |
| 2026-04-23 00:45 | -34.52798 | -61.02048 | 36192 ft | 361 kts | 282° |
| 2026-04-23 00:45 | -34.51861 | -61.08024 | 36195 ft | 361 kts | 282° |
| 2026-04-23 00:46 | -34.50930 | -61.14000 | 36194 ft | 360 kts | 282° |
| 2026-04-23 00:46 | -34.50008 | -61.19924 | 36199 ft | 360 kts | 282° |
| 2026-04-23 00:47 | -34.49078 | -61.25890 | 36199 ft | 360 kts | 282° |
| 2026-04-23 00:47 | -34.48145 | -61.31850 | 36202 ft | 360 kts | 282° |
| 2026-04-23 00:48 | -34.47211 | -61.37802 | 36200 ft | 360 kts | 282° |
| 2026-04-23 00:48 | -34.46280 | -61.43720 | 36198 ft | 360 kts | 282° |
| 2026-04-23 00:49 | -34.45340 | -61.49676 | 36198 ft | 360 kts | 282° |
| 2026-04-23 00:49 | -34.44395 | -61.55634 | 36202 ft | 360 kts | 282° |
| 2026-04-23 00:50 | -34.43441 | -61.61591 | 36200 ft | 360 kts | 282° |
| 2026-04-23 00:50 | -34.42489 | -61.67509 | 36200 ft | 361 kts | 282° |
| 2026-04-23 00:51 | -34.41528 | -61.73475 | 36203 ft | 361 kts | 282° |
| 2026-04-23 00:51 | -34.40564 | -61.79442 | 36199 ft | 361 kts | 282° |
| 2026-04-23 00:52 | -34.39597 | -61.85414 | 36200 ft | 362 kts | 282° |
| 2026-04-23 00:52 | -34.38625 | -61.91393 | 36203 ft | 362 kts | 282° |
| 2026-04-23 00:53 | -34.37656 | -61.97334 | 36200 ft | 362 kts | 282° |
| 2026-04-23 00:53 | -34.36677 | -62.03321 | 36202 ft | 363 kts | 282° |
| 2026-04-23 00:54 | -34.35694 | -62.09312 | 36203 ft | 363 kts | 282° |
| 2026-04-23 00:54 | -34.34706 | -62.15304 | 36203 ft | 363 kts | 282° |
| 2026-04-23 00:55 | -34.33721 | -62.21258 | 36202 ft | 364 kts | 282° |
| 2026-04-23 00:55 | -34.32726 | -62.27256 | 36205 ft | 364 kts | 282° |
| 2026-04-23 00:56 | -34.31728 | -62.33255 | 36203 ft | 364 kts | 282° |
| 2026-04-23 00:56 | -34.30728 | -62.39254 | 36205 ft | 364 kts | 282° |
| 2026-04-23 00:57 | -34.29731 | -62.45212 | 36209 ft | 364 kts | 282° |
| 2026-04-23 00:57 | -34.28723 | -62.51213 | 36210 ft | 364 kts | 282° |
| 2026-04-23 00:58 | -34.27713 | -62.57209 | 36206 ft | 364 kts | 282° |
| 2026-04-23 00:58 | -34.26700 | -62.63209 | 36206 ft | 364 kts | 282° |
| 2026-04-23 00:59 | -34.25690 | -62.69168 | 36206 ft | 364 kts | 282° |
| 2026-04-23 00:59 | -34.24671 | -62.75165 | 36209 ft | 364 kts | 282° |
| 2026-04-23 01:00 | -34.23648 | -62.81166 | 36206 ft | 364 kts | 283° |
| 2026-04-23 01:00 | -34.22621 | -62.87167 | 36210 ft | 365 kts | 283° |
| 2026-04-23 01:01 | -34.21592 | -62.93167 | 36205 ft | 365 kts | 283° |
| 2026-04-23 01:01 | -34.20566 | -62.99127 | 36209 ft | 365 kts | 283° |
| 2026-04-23 01:02 | -34.19532 | -63.05121 | 36213 ft | 365 kts | 283° |
| 2026-04-23 01:02 | -34.18491 | -63.11129 | 36209 ft | 365 kts | 283° |
| 2026-04-23 01:03 | -34.17449 | -63.17131 | 36211 ft | 365 kts | 283° |
| 2026-04-23 01:03 | -34.16411 | -63.23094 | 36211 ft | 365 kts | 283° |
| 2026-04-23 01:04 | -34.15363 | -63.29098 | 36212 ft | 366 kts | 283° |
| 2026-04-23 01:04 | -34.13767 | -63.38100 | 36210 ft | 366 kts | 284° |
| 2026-04-23 01:05 | -34.12593 | -63.44071 | 36210 ft | 366 kts | 284° |
| 2026-04-23 01:05 | -34.11411 | -63.49998 | 36208 ft | 366 kts | 284° |
| 2026-04-23 01:06 | -34.10228 | -63.55964 | 36210 ft | 366 kts | 284° |
| 2026-04-23 01:06 | -34.09046 | -63.61933 | 36210 ft | 366 kts | 284° |
| 2026-04-23 01:07 | -34.07863 | -63.67898 | 36207 ft | 366 kts | 284° |
| 2026-04-23 01:07 | -34.06677 | -63.73864 | 36213 ft | 366 kts | 284° |
| 2026-04-23 01:08 | -34.05498 | -63.79785 | 36212 ft | 366 kts | 284° |
| 2026-04-23 01:08 | -34.04307 | -63.85742 | 36210 ft | 366 kts | 284° |
| 2026-04-23 01:09 | -34.03114 | -63.91702 | 36209 ft | 366 kts | 284° |
| 2026-04-23 01:09 | -34.01921 | -63.97665 | 36214 ft | 366 kts | 284° |
| 2026-04-23 01:10 | -34.00733 | -64.03584 | 36215 ft | 366 kts | 284° |
| 2026-04-23 01:10 | -33.99535 | -64.09542 | 36216 ft | 366 kts | 284° |
| 2026-04-23 01:11 | -33.98333 | -64.15499 | 36216 ft | 366 kts | 284° |
| 2026-04-23 01:11 | -33.97128 | -64.21458 | 36213 ft | 366 kts | 284° |
| 2026-04-23 01:12 | -33.95928 | -64.27378 | 36211 ft | 366 kts | 284° |
| 2026-04-23 01:12 | -33.94717 | -64.33336 | 36217 ft | 366 kts | 284° |
| 2026-04-23 01:13 | -33.93503 | -64.39294 | 36214 ft | 366 kts | 284° |
| 2026-04-23 01:13 | -33.92287 | -64.45250 | 36214 ft | 366 kts | 284° |
| 2026-04-23 01:14 | -33.91074 | -64.51165 | 36219 ft | 366 kts | 284° |
| 2026-04-23 01:14 | -33.89850 | -64.57114 | 36218 ft | 366 kts | 285° |
| 2026-04-23 01:15 | -33.88623 | -64.63066 | 36217 ft | 366 kts | 285° |
| 2026-04-23 01:15 | -33.87393 | -64.69016 | 36213 ft | 366 kts | 285° |
| 2026-04-23 01:16 | -33.86161 | -64.74969 | 36212 ft | 366 kts | 285° |
| 2026-04-23 01:16 | -33.84936 | -64.80865 | 36217 ft | 366 kts | 285° |
| 2026-04-23 01:17 | -33.83695 | -64.86812 | 36216 ft | 367 kts | 285° |
| 2026-04-23 01:17 | -33.82452 | -64.92756 | 36219 ft | 367 kts | 285° |
| 2026-04-23 01:18 | -33.81206 | -64.98701 | 36222 ft | 367 kts | 285° |
| 2026-04-23 01:18 | -33.79964 | -65.04611 | 36225 ft | 367 kts | 285° |
| 2026-04-23 01:19 | -33.78711 | -65.10562 | 36228 ft | 367 kts | 285° |
| 2026-04-23 01:19 | -33.77453 | -65.16517 | 36230 ft | 368 kts | 285° |
| 2026-04-23 01:20 | -33.76193 | -65.22471 | 36234 ft | 368 kts | 285° |
| 2026-04-23 01:20 | -33.74929 | -65.28427 | 36240 ft | 368 kts | 285° |
| 2026-04-23 01:21 | -33.73670 | -65.34350 | 36239 ft | 368 kts | 285° |
| 2026-04-23 01:21 | -33.72380 | -65.40304 | 36239 ft | 368 kts | 286° |
| 2026-04-23 01:22 | -33.70989 | -65.46230 | 36238 ft | 369 kts | 287° |
| 2026-04-23 01:22 | -33.69580 | -65.52152 | 36236 ft | 369 kts | 287° |
| 2026-04-23 01:23 | -33.68185 | -65.58039 | 36234 ft | 369 kts | 287° |
| 2026-04-23 01:23 | -33.66781 | -65.63974 | 36229 ft | 370 kts | 287° |
| 2026-04-23 01:24 | -33.65377 | -65.69906 | 36227 ft | 370 kts | 287° |
| 2026-04-23 01:24 | -33.63967 | -65.75849 | 36222 ft | 370 kts | 287° |
| 2026-04-23 01:25 | -33.62563 | -65.81753 | 36220 ft | 370 kts | 287° |
| 2026-04-23 01:25 | -33.61147 | -65.87692 | 36220 ft | 370 kts | 287° |
| 2026-04-23 01:26 | -33.59729 | -65.93629 | 36218 ft | 370 kts | 287° |
| 2026-04-23 01:26 | -33.58307 | -65.99568 | 36220 ft | 370 kts | 287° |
| 2026-04-23 01:27 | -33.56881 | -66.05506 | 36218 ft | 371 kts | 287° |
| 2026-04-23 01:27 | -33.55463 | -66.11402 | 36218 ft | 371 kts | 287° |
| 2026-04-23 01:28 | -33.54030 | -66.17345 | 36223 ft | 371 kts | 287° |
| 2026-04-23 01:28 | -33.52595 | -66.23285 | 36224 ft | 371 kts | 287° |
| 2026-04-23 01:29 | -33.51154 | -66.29235 | 36227 ft | 372 kts | 287° |
| 2026-04-23 01:29 | -33.49709 | -66.35190 | 36223 ft | 372 kts | 287° |
| 2026-04-23 01:30 | -33.48122 | -66.41047 | 36229 ft | 372 kts | 290° |
| 2026-04-23 01:30 | -33.46263 | -66.46843 | 36225 ft | 373 kts | 291° |
| 2026-04-23 01:31 | -33.44405 | -66.52648 | 36221 ft | 373 kts | 291° |
| 2026-04-23 01:31 | -33.42559 | -66.58457 | 36222 ft | 373 kts | 290° |
| 2026-04-23 01:32 | -33.40989 | -66.64334 | 36220 ft | 374 kts | 287° |
| 2026-04-23 01:32 | -33.40262 | -66.67331 | 35976 ft | 377 kts | 287° |
| 2026-04-23 01:32 | -33.39536 | -66.70333 | 35639 ft | 373 kts | 287° |
| 2026-04-23 01:33 | -33.38818 | -66.73292 | 35222 ft | 367 kts | 287° |
| 2026-04-23 01:33 | -33.38106 | -66.76213 | 34773 ft | 364 kts | 287° |
| 2026-04-23 01:33 | -33.37396 | -66.79106 | 34345 ft | 361 kts | 287° |
| 2026-04-23 01:33 | -33.36691 | -66.81970 | 33865 ft | 358 kts | 287° |
| 2026-04-23 01:34 | -33.35999 | -66.84773 | 33396 ft | 355 kts | 287° |
| 2026-04-23 01:34 | -33.35303 | -66.87588 | 32939 ft | 351 kts | 287° |
| 2026-04-23 01:34 | -33.34613 | -66.90374 | 32510 ft | 348 kts | 287° |
| 2026-04-23 01:34 | -33.33928 | -66.93136 | 32086 ft | 345 kts | 286° |
| 2026-04-23 01:35 | -33.33249 | -66.95872 | 31664 ft | 342 kts | 286° |
| 2026-04-23 01:35 | -33.32574 | -66.98589 | 31257 ft | 339 kts | 286° |
| 2026-04-23 01:35 | -33.31904 | -67.01285 | 30852 ft | 337 kts | 286° |
| 2026-04-23 01:35 | -33.31237 | -67.03964 | 30452 ft | 335 kts | 285° |
| 2026-04-23 01:36 | -33.30573 | -67.06630 | 30009 ft | 334 kts | 285° |
| 2026-04-23 01:36 | -33.29922 | -67.09239 | 29547 ft | 331 kts | 285° |
| 2026-04-23 01:36 | -33.29267 | -67.11865 | 29118 ft | 328 kts | 285° |
| 2026-04-23 01:36 | -33.28617 | -67.14465 | 28694 ft | 325 kts | 285° |
| 2026-04-23 01:37 | -33.27973 | -67.17041 | 28289 ft | 322 kts | 285° |
| 2026-04-23 01:37 | -33.27334 | -67.19599 | 27871 ft | 320 kts | 285° |
| 2026-04-23 01:37 | -33.26698 | -67.22133 | 27477 ft | 317 kts | 285° |
| 2026-04-23 01:37 | -33.26066 | -67.24652 | 27079 ft | 316 kts | 286° |
| 2026-04-23 01:38 | -33.25423 | -67.27161 | 26684 ft | 315 kts | 287° |
| 2026-04-23 01:38 | -33.24727 | -67.29661 | 26284 ft | 320 kts | 288° |
| 2026-04-23 01:38 | -33.23994 | -67.32226 | 25884 ft | 332 kts | 288° |
| 2026-04-23 01:38 | -33.23248 | -67.34820 | 25466 ft | 335 kts | 288° |
| 2026-04-23 01:39 | -33.22494 | -67.37446 | 25042 ft | 333 kts | 288° |
| 2026-04-23 01:39 | -33.21747 | -67.40058 | 24630 ft | 332 kts | 288° |
| 2026-04-23 01:39 | -33.21004 | -67.42657 | 24210 ft | 330 kts | 288° |
| 2026-04-23 01:39 | -33.20265 | -67.45250 | 23799 ft | 329 kts | 288° |
| 2026-04-23 01:40 | -33.19529 | -67.47833 | 23336 ft | 328 kts | 288° |
| 2026-04-23 01:40 | -33.18797 | -67.50401 | 22902 ft | 326 kts | 288° |
| 2026-04-23 01:40 | -33.18079 | -67.52919 | 22501 ft | 323 kts | 288° |
| 2026-04-23 01:40 | -33.17357 | -67.55449 | 22099 ft | 321 kts | 288° |
| 2026-04-23 01:41 | -33.16640 | -67.57959 | 21706 ft | 319 kts | 288° |
| 2026-04-23 01:41 | -33.15925 | -67.60460 | 21318 ft | 317 kts | 288° |
| 2026-04-23 01:41 | -33.15215 | -67.62942 | 20942 ft | 315 kts | 288° |
| 2026-04-23 01:41 | -33.14509 | -67.65409 | 20561 ft | 314 kts | 288° |
| 2026-04-23 01:42 | -33.13805 | -67.67868 | 20184 ft | 313 kts | 288° |
| 2026-04-23 01:42 | -33.13102 | -67.70320 | 19815 ft | 312 kts | 288° |
| 2026-04-23 01:42 | -33.12399 | -67.72764 | 19445 ft | 311 kts | 288° |
| 2026-04-23 01:42 | -33.11729 | -67.75181 | 19069 ft | 311 kts | 283° |
| 2026-04-23 01:43 | -33.11397 | -67.77757 | 18356 ft | 321 kts | 275° |
| 2026-04-23 01:43 | -33.11213 | -67.80428 | 17867 ft | 322 kts | 274° |
| 2026-04-23 01:43 | -33.11053 | -67.83086 | 17451 ft | 321 kts | 274° |
| 2026-04-23 01:43 | -33.10893 | -67.85732 | 17073 ft | 319 kts | 274° |
| 2026-04-23 01:44 | -33.10727 | -67.88350 | 16734 ft | 316 kts | 274° |
| 2026-04-23 01:44 | -33.10555 | -67.90951 | 16400 ft | 313 kts | 274° |
| 2026-04-23 01:44 | -33.10381 | -67.93508 | 15907 ft | 316 kts | 274° |
| 2026-04-23 01:44 | -33.10198 | -67.96131 | 15403 ft | 319 kts | 275° |
| 2026-04-23 01:45 | -33.10012 | -67.98756 | 15052 ft | 317 kts | 275° |
| 2026-04-23 01:45 | -33.09825 | -68.01365 | 14710 ft | 314 kts | 275° |
| 2026-04-23 01:45 | -33.09639 | -68.03954 | 14350 ft | 313 kts | 275° |
| 2026-04-23 01:45 | -33.09452 | -68.06537 | 13980 ft | 312 kts | 275° |
| 2026-04-23 01:46 | -33.09264 | -68.09109 | 13576 ft | 311 kts | 275° |
| 2026-04-23 01:46 | -33.09077 | -68.11677 | 13165 ft | 310 kts | 275° |
| 2026-04-23 01:46 | -33.08889 | -68.14241 | 12753 ft | 310 kts | 275° |
| 2026-04-23 01:46 | -33.08701 | -68.16799 | 12359 ft | 309 kts | 275° |
| 2026-04-23 01:47 | -33.08515 | -68.19314 | 11978 ft | 309 kts | 276° |
| 2026-04-23 01:47 | -33.08327 | -68.21864 | 11595 ft | 308 kts | 276° |
| 2026-04-23 01:47 | -33.08139 | -68.24405 | 11219 ft | 308 kts | 276° |
| 2026-04-23 01:47 | -33.07950 | -68.26945 | 10844 ft | 307 kts | 276° |
| 2026-04-23 01:48 | -33.07761 | -68.29477 | 10543 ft | 304 kts | 276° |
| 2026-04-23 01:48 | -33.07575 | -68.31962 | 10349 ft | 298 kts | 276° |
| 2026-04-23 01:48 | -33.07394 | -68.34387 | 10171 ft | 291 kts | 276° |
| 2026-04-23 01:48 | -33.07213 | -68.36789 | 9835 ft | 290 kts | 276° |
| 2026-04-23 01:49 | -33.07036 | -68.39147 | 9526 ft | 288 kts | 276° |
| 2026-04-23 01:49 | -33.06856 | -68.41517 | 9224 ft | 286 kts | 276° |
| 2026-04-23 01:49 | -33.06677 | -68.43876 | 8923 ft | 284 kts | 276° |
| 2026-04-23 01:49 | -33.06500 | -68.46216 | 8626 ft | 283 kts | 276° |
| 2026-04-23 01:50 | -33.06323 | -68.48541 | 8329 ft | 281 kts | 276° |
| 2026-04-23 01:50 | -33.06146 | -68.50853 | 8038 ft | 279 kts | 276° |
| 2026-04-23 01:50 | -33.05971 | -68.53145 | 7737 ft | 274 kts | 276° |
| 2026-04-23 01:50 | -33.05802 | -68.55363 | 7557 ft | 262 kts | 276° |
| 2026-04-23 01:51 | -33.05641 | -68.57466 | 7427 ft | 248 kts | 276° |
| 2026-04-23 01:51 | -33.05486 | -68.59467 | 7323 ft | 239 kts | 276° |
| 2026-04-23 01:51 | -33.05338 | -68.61381 | 7220 ft | 232 kts | 276° |
| 2026-04-23 01:51 | -33.05258 | -68.63292 | 7062 ft | 228 kts | 271° |
| 2026-04-23 01:52 | -33.05246 | -68.65164 | 6910 ft | 224 kts | 271° |
| 2026-04-23 01:52 | -33.05240 | -68.67006 | 6645 ft | 223 kts | 271° |
| 2026-04-23 01:52 | -33.05231 | -68.68824 | 6416 ft | 216 kts | 271° |
| 2026-04-23 01:52 | -33.05218 | -68.70576 | 6233 ft | 208 kts | 271° |
| 2026-04-23 01:53 | -33.05203 | -68.72268 | 6104 ft | 199 kts | 271° |
| 2026-04-23 01:53 | -33.05187 | -68.73904 | 5968 ft | 197 kts | 271° |
| 2026-04-23 01:53 | -33.05172 | -68.75489 | 5821 ft | 190 kts | 272° |
| 2026-04-23 01:53 | -33.05156 | -68.77040 | 5695 ft | 185 kts | 272° |
| 2026-04-23 01:54 | -33.04831 | -68.78450 | 5519 ft | 172 kts | 309° |
| 2026-04-23 01:54 | -33.03934 | -68.79317 | 5473 ft | 168 kts | 338° |
| 2026-04-23 01:54 | -33.02815 | -68.79521 | 5360 ft | 160 kts | 1° |
| 2026-04-23 01:54 | -33.01712 | -68.79534 | 5304 ft | 160 kts | 359° |
| 2026-04-23 01:55 | -33.00607 | -68.79539 | 5189 ft | 156 kts | 0° |
| 2026-04-23 01:55 | -32.99528 | -68.79530 | 5064 ft | 155 kts | 1° |
| 2026-04-23 01:55 | -32.98448 | -68.79516 | 5021 ft | 155 kts | 1° |
| 2026-04-23 01:55 | -32.97727 | -68.79506 | 4909 ft | 157 kts | 1° |
| 2026-04-23 01:56 | -32.96296 | -68.79484 | 4636 ft | 154 kts | 1° |
| 2026-04-23 01:56 | -32.95222 | -68.79468 | 4439 ft | 154 kts | 1° |
| 2026-04-23 01:56 | -32.94155 | -68.79452 | 4236 ft | 153 kts | 1° |
| 2026-04-23 01:56 | -32.93093 | -68.79436 | 4032 ft | 153 kts | 1° |
| 2026-04-23 01:57 | -32.92024 | -68.79420 | 3822 ft | 153 kts | 0° |
| 2026-04-23 01:57 | -32.90952 | -68.79404 | 3610 ft | 155 kts | 359° |
| 2026-04-23 01:57 | -32.89874 | -68.79388 | 3399 ft | 155 kts | 359° |
| 2026-04-23 01:57 | -32.88792 | -68.79372 | 3239 ft | 154 kts | 359° |
| 2026-04-23 01:58 | -32.87754 | -68.79348 | 3047 ft | 150 kts | 359° |
| 2026-04-23 01:58 | -32.86694 | -68.79332 | 2854 ft | 153 kts | 359° |
| 2026-04-23 01:58 | -32.85638 | -68.79324 | 2650 ft | 151 kts | 360° |
| 2026-04-23 01:58 | -32.84589 | -68.79306 | 2433 ft | 152 kts | 1° |
| 2026-04-23 01:59 | -32.83573 | -68.79294 | 2359 ft | 135 kts | 359° |
| 2026-04-23 01:59 | -32.82849 | -68.79284 | 2360 ft | 73 kts | 0° |
| 2026-04-23 01:59 | -32.82486 | -68.79279 | 2360 ft | 39 kts | 1° |
| 2026-04-23 01:59 | -32.82260 | -68.79276 | 2357 ft | 31 kts | 1° |
| 2026-04-23 02:00 | -32.82080 | -68.79273 | 2357 ft | 22 kts | 1° |
| 2026-04-23 02:00 | -32.81941 | -68.79322 | 2356 ft | 21 kts | 320° |
| 2026-04-23 02:00 | -32.81943 | -68.79472 | 2358 ft | 19 kts | 233° |
| 2026-04-23 02:00 | -32.82067 | -68.79491 | 2353 ft | 18 kts | 181° |
| 2026-04-23 02:01 | -32.82191 | -68.79496 | 2352 ft | 18 kts | 180° |
| 2026-04-23 02:01 | -32.82310 | -68.79494 | 2353 ft | 17 kts | 179° |
| 2026-04-23 02:01 | -32.82426 | -68.79500 | 2353 ft | 16 kts | 181° |
| 2026-04-23 02:01 | -32.82537 | -68.79500 | 2356 ft | 16 kts | 179° |
| 2026-04-23 02:02 | -32.82642 | -68.79508 | 2358 ft | 14 kts | 207° |
| 2026-04-23 02:02 | -32.82671 | -68.79578 | 2359 ft | 6 kts | 253° |
| 2026-04-23 02:02 | -32.82683 | -68.79622 | 2359 ft | 6 kts | 244° |
| 2026-04-23 02:02 | -32.82715 | -68.79651 | 2358 ft | 6 kts | 226° |
| 2026-04-23 02:03 | -32.82741 | -68.79686 | 2358 ft | 6 kts | 233° |
| 2026-04-23 02:03 | -32.82728 | -68.79727 | 2359 ft | 4 kts | 305° |
| 2026-04-23 02:03 | -32.82722 | -68.79759 | 2356 ft | 4 kts | 270° |
| 2026-04-23 02:03 | -32.82722 | -68.79776 | 2356 ft | 0 kts | 270° |